sensor_id;sensor_type;location;lat;lon;timestamp;pressure;altitude;pressure_sealevel;temperature;humidity
56807;BME280;42687;42.524;12.052;2023-04-20T00:02:05;96466.47;;;8.06;86.77
56807;BME280;42687;42.524;12.052;2023-04-20T00:04:31;96464.28;;;7.98;86.12
56807;BME280;42687;42.524;12.052;2023-04-20T00:06:57;96464.41;;;7.95;86.90
56807;BME280;42687;42.524;12.052;2023-04-20T00:09:25;96459.44;;;7.91;87.35
56807;BME280;42687;42.524;12.052;2023-04-20T00:11:51;96459.81;;;7.83;89.93
56807;BME280;42687;42.524;12.052;2023-04-20T00:14:18;96446.53;;;7.70;93.06
56807;BME280;42687;42.524;12.052;2023-04-20T00:16:44;96443.38;;;7.63;92.45
56807;BME280;42687;42.524;12.052;2023-04-20T00:19:10;96442.47;;;7.64;94.58
56807;BME280;42687;42.524;12.052;2023-04-20T00:21:36;96444.25;;;7.64;96.57
56807;BME280;42687;42.524;12.052;2023-04-20T00:24:02;96444.53;;;7.58;97.42
56807;BME280;42687;42.524;12.052;2023-04-20T00:26:28;96396.31;;;7.28;98.69
56807;BME280;42687;42.524;12.052;2023-04-20T00:28:54;96432.16;;;7.44;99.41
56807;BME280;42687;42.524;12.052;2023-04-20T00:31:20;96423.78;;;7.37;96.25
56807;BME280;42687;42.524;12.052;2023-04-20T00:33:48;96420.31;;;7.37;93.54
56807;BME280;42687;42.524;12.052;2023-04-20T00:36:14;96414.47;;;7.31;92.68
56807;BME280;42687;42.524;12.052;2023-04-20T00:38:40;96394.84;;;7.23;91.46
56807;BME280;42687;42.524;12.052;2023-04-20T00:41:06;96410.78;;;7.35;91.94
56807;BME280;42687;42.524;12.052;2023-04-20T00:43:32;96402.09;;;7.35;94.47
56807;BME280;42687;42.524;12.052;2023-04-20T00:45:58;96407.47;;;7.32;94.13
56807;BME280;42687;42.524;12.052;2023-04-20T00:48:23;96401.47;;;7.30;93.88
56807;BME280;42687;42.524;12.052;2023-04-20T00:50:50;96403.31;;;7.28;95.13
56807;BME280;42687;42.524;12.052;2023-04-20T00:53:16;96408.41;;;7.31;96.75
56807;BME280;42687;42.524;12.052;2023-04-20T00:55:43;96391.19;;;7.27;96.82
56807;BME280;42687;42.524;12.052;2023-04-20T00:58:09;96356.50;;;7.06;96.25
56807;BME280;42687;42.524;12.052;2023-04-20T01:00:36;96395.78;;;7.39;92.96
56807;BME280;42687;42.524;12.052;2023-04-20T01:03:03;96401.16;;;7.54;95.07
56807;BME280;42687;42.524;12.052;2023-04-20T01:05:29;96403.91;;;7.68;92.83
56807;BME280;42687;42.524;12.052;2023-04-20T01:07:55;96384.13;;;7.78;93.01
56807;BME280;42687;42.524;12.052;2023-04-20T01:10:21;96382.63;;;7.90;87.80
56807;BME280;42687;42.524;12.052;2023-04-20T01:12:46;96378.88;;;7.96;87.26
56807;BME280;42687;42.524;12.052;2023-04-20T01:15:12;96387.25;;;8.02;88.92
56807;BME280;42687;42.524;12.052;2023-04-20T01:17:38;96378.44;;;8.04;87.62
56807;BME280;42687;42.524;12.052;2023-04-20T01:20:08;96373.53;;;7.97;87.68
56807;BME280;42687;42.524;12.052;2023-04-20T01:22:50;96369.81;;;7.85;88.01
56807;BME280;42687;42.524;12.052;2023-04-20T01:25:19;96316.91;;;7.47;90.00
56807;BME280;42687;42.524;12.052;2023-04-20T01:27:45;96374.69;;;7.76;91.37
56807;BME280;42687;42.524;12.052;2023-04-20T01:30:11;96376.03;;;7.67;92.85
56807;BME280;42687;42.524;12.052;2023-04-20T01:32:38;96373.28;;;7.53;90.56
56807;BME280;42687;42.524;12.052;2023-04-20T01:35:04;96384.59;;;7.53;91.33
56807;BME280;42687;42.524;12.052;2023-04-20T01:37:30;96377.00;;;7.48;92.81
56807;BME280;42687;42.524;12.052;2023-04-20T01:39:56;96375.38;;;7.46;90.93
56807;BME280;42687;42.524;12.052;2023-04-20T01:42:22;96372.75;;;7.46;91.03
56807;BME280;42687;42.524;12.052;2023-04-20T01:44:48;96369.34;;;7.44;93.33
56807;BME280;42687;42.524;12.052;2023-04-20T01:47:14;96371.44;;;7.37;94.36
56807;BME280;42687;42.524;12.052;2023-04-20T01:49:40;96373.63;;;7.29;90.82
56807;BME280;42687;42.524;12.052;2023-04-20T01:52:06;96372.19;;;7.23;91.04
56807;BME280;42687;42.524;12.052;2023-04-20T01:54:32;96370.25;;;7.27;94.56
56807;BME280;42687;42.524;12.052;2023-04-20T01:56:58;96373.00;;;7.24;95.47
56807;BME280;42687;42.524;12.052;2023-04-20T01:59:23;96365.53;;;7.16;93.68
56807;BME280;42687;42.524;12.052;2023-04-20T02:01:49;96367.03;;;7.22;95.45
56807;BME280;42687;42.524;12.052;2023-04-20T02:04:15;96359.56;;;7.14;97.00
56807;BME280;42687;42.524;12.052;2023-04-20T02:06:41;96358.88;;;7.10;97.22
56807;BME280;42687;42.524;12.052;2023-04-20T02:09:06;96362.47;;;7.08;97.77
56807;BME280;42687;42.524;12.052;2023-04-20T02:11:34;96360.25;;;7.00;96.82
56807;BME280;42687;42.524;12.052;2023-04-20T02:14:00;96359.03;;;6.90;96.27
56807;BME280;42687;42.524;12.052;2023-04-20T02:16:25;96353.03;;;6.70;95.36
56807;BME280;42687;42.524;12.052;2023-04-20T02:18:54;96350.09;;;6.59;94.03
56807;BME280;42687;42.524;12.052;2023-04-20T02:21:20;96348.06;;;6.46;93.97
56807;BME280;42687;42.524;12.052;2023-04-20T02:23:46;96354.13;;;6.47;95.60
56807;BME280;42687;42.524;12.052;2023-04-20T02:26:12;96315.16;;;6.25;96.93
56807;BME280;42687;42.524;12.052;2023-04-20T02:28:38;96354.75;;;6.52;96.01
56807;BME280;42687;42.524;12.052;2023-04-20T02:31:04;96358.84;;;6.58;94.65
56807;BME280;42687;42.524;12.052;2023-04-20T02:33:30;96360.44;;;6.60;94.56
56807;BME280;42687;42.524;12.052;2023-04-20T02:35:55;96339.00;;;6.54;94.28
56807;BME280;42687;42.524;12.052;2023-04-20T02:38:21;96348.38;;;6.58;95.46
56807;BME280;42687;42.524;12.052;2023-04-20T02:40:47;96350.25;;;6.56;95.06
56807;BME280;42687;42.524;12.052;2023-04-20T02:43:12;96341.63;;;6.54;95.15
56807;BME280;42687;42.524;12.052;2023-04-20T02:45:38;96339.09;;;6.52;95.24
56807;BME280;42687;42.524;12.052;2023-04-20T02:48:04;96329.41;;;6.54;95.52
56807;BME280;42687;42.524;12.052;2023-04-20T02:50:30;96334.50;;;6.57;95.81
56807;BME280;42687;42.524;12.052;2023-04-20T02:52:56;96337.81;;;6.61;96.33
56807;BME280;42687;42.524;12.052;2023-04-20T02:55:22;96338.72;;;6.60;95.53
56807;BME280;42687;42.524;12.052;2023-04-20T02:57:47;96339.00;;;6.54;94.70
56807;BME280;42687;42.524;12.052;2023-04-20T03:00:13;96341.69;;;6.52;95.14
56807;BME280;42687;42.524;12.052;2023-04-20T03:02:39;96344.56;;;6.47;94.47
56807;BME280;42687;42.524;12.052;2023-04-20T03:05:05;96333.47;;;6.42;94.62
56807;BME280;42687;42.524;12.052;2023-04-20T03:07:31;96342.03;;;6.46;95.93
56807;BME280;42687;42.524;12.052;2023-04-20T03:09:57;96346.22;;;6.48;95.82
56807;BME280;42687;42.524;12.052;2023-04-20T03:12:23;96345.94;;;6.55;96.45
56807;BME280;42687;42.524;12.052;2023-04-20T03:14:50;96350.00;;;6.60;96.31
56807;BME280;42687;42.524;12.052;2023-04-20T03:17:16;96353.31;;;6.64;96.13
56807;BME280;42687;42.524;12.052;2023-04-20T03:19:42;96347.81;;;6.70;95.93
56807;BME280;42687;42.524;12.052;2023-04-20T03:22:07;96351.78;;;6.77;95.63
56807;BME280;42687;42.524;12.052;2023-04-20T03:24:33;96349.09;;;6.79;96.07
56807;BME280;42687;42.524;12.052;2023-04-20T03:26:59;96346.66;;;6.76;97.14
56807;BME280;42687;42.524;12.052;2023-04-20T03:29:25;96351.03;;;6.75;97.91
56807;BME280;42687;42.524;12.052;2023-04-20T03:31:51;96344.56;;;6.65;98.39
56807;BME280;42687;42.524;12.052;2023-04-20T03:34:16;96346.00;;;6.53;97.17
56807;BME280;42687;42.524;12.052;2023-04-20T03:36:42;96346.38;;;6.45;96.35
56807;BME280;42687;42.524;12.052;2023-04-20T03:39:08;96345.91;;;6.37;97.66
56807;BME280;42687;42.524;12.052;2023-04-20T03:41:34;96337.88;;;6.23;99.15
56807;BME280;42687;42.524;12.052;2023-04-20T03:43:59;96345.44;;;6.29;99.96
56807;BME280;42687;42.524;12.052;2023-04-20T03:46:25;96347.41;;;6.24;100.00
56807;BME280;42687;42.524;12.052;2023-04-20T03:48:51;96355.38;;;6.21;100.00
56807;BME280;42687;42.524;12.052;2023-04-20T03:51:17;96358.94;;;6.20;100.00
56807;BME280;42687;42.524;12.052;2023-04-20T03:53:43;96353.19;;;6.11;100.00
56807;BME280;42687;42.524;12.052;2023-04-20T03:56:09;96359.03;;;5.97;99.35
56807;BME280;42687;42.524;12.052;2023-04-20T03:58:34;96364.53;;;5.91;98.54
56807;BME280;42687;42.524;12.052;2023-04-20T04:01:04;96355.31;;;5.84;97.99
56807;BME280;42687;42.524;12.052;2023-04-20T04:03:34;96369.06;;;5.88;98.39
56807;BME280;42687;42.524;12.052;2023-04-20T04:06:00;96365.47;;;5.90;98.00
56807;BME280;42687;42.524;12.052;2023-04-20T04:08:26;96352.94;;;5.98;98.55
56807;BME280;42687;42.524;12.052;2023-04-20T04:10:52;96358.50;;;6.10;99.11
56807;BME280;42687;42.524;12.052;2023-04-20T04:13:18;96358.06;;;6.19;98.17
56807;BME280;42687;42.524;12.052;2023-04-20T04:15:44;96329.66;;;6.13;98.12
56807;BME280;42687;42.524;12.052;2023-04-20T04:18:10;96359.50;;;6.44;96.71
56807;BME280;42687;42.524;12.052;2023-04-20T04:20:36;96359.84;;;6.55;97.33
56807;BME280;42687;42.524;12.052;2023-04-20T04:23:02;96355.03;;;6.65;97.65
56807;BME280;42687;42.524;12.052;2023-04-20T04:25:27;96369.34;;;6.75;98.24
56807;BME280;42687;42.524;12.052;2023-04-20T04:27:54;96361.31;;;6.78;97.70
56807;BME280;42687;42.524;12.052;2023-04-20T04:30:19;96360.34;;;6.81;96.61
56807;BME280;42687;42.524;12.052;2023-04-20T04:32:45;96364.47;;;6.85;97.23
56807;BME280;42687;42.524;12.052;2023-04-20T04:35:13;96346.66;;;6.76;97.11
56807;BME280;42687;42.524;12.052;2023-04-20T04:37:39;96355.81;;;6.84;97.52
56807;BME280;42687;42.524;12.052;2023-04-20T04:40:05;96373.88;;;6.89;97.96
56807;BME280;42687;42.524;12.052;2023-04-20T04:42:35;96352.19;;;6.87;98.02
56807;BME280;42687;42.524;12.052;2023-04-20T04:45:01;96375.09;;;6.99;98.39
56807;BME280;42687;42.524;12.052;2023-04-20T04:47:33;96299.22;;;6.66;94.49
56807;BME280;42687;42.524;12.052;2023-04-20T04:50:00;96376.47;;;7.07;92.61
56807;BME280;42687;42.524;12.052;2023-04-20T04:52:26;96387.56;;;7.12;92.41
56807;BME280;42687;42.524;12.052;2023-04-20T04:54:52;96390.16;;;7.12;92.91
56807;BME280;42687;42.524;12.052;2023-04-20T04:57:18;96379.78;;;7.10;92.41
56807;BME280;42687;42.524;12.052;2023-04-20T04:59:44;96387.78;;;7.07;92.23
56807;BME280;42687;42.524;12.052;2023-04-20T05:02:10;96384.47;;;7.04;92.25
56807;BME280;42687;42.524;12.052;2023-04-20T05:04:36;96386.09;;;7.06;92.23
56807;BME280;42687;42.524;12.052;2023-04-20T05:07:02;96390.25;;;7.10;92.60
56807;BME280;42687;42.524;12.052;2023-04-20T05:09:28;96380.63;;;7.11;92.39
56807;BME280;42687;42.524;12.052;2023-04-20T05:11:58;96391.78;;;7.14;92.78
56807;BME280;42687;42.524;12.052;2023-04-20T05:14:25;96403.03;;;7.16;92.58
56807;BME280;42687;42.524;12.052;2023-04-20T05:16:51;96385.72;;;7.14;93.08
56807;BME280;42687;42.524;12.052;2023-04-20T05:19:17;96391.47;;;7.21;92.71
56807;BME280;42687;42.524;12.052;2023-04-20T05:21:43;96393.00;;;7.25;93.85
56807;BME280;42687;42.524;12.052;2023-04-20T05:24:08;96379.25;;;7.21;92.99
56807;BME280;42687;42.524;12.052;2023-04-20T05:26:34;96391.75;;;7.32;93.20
56807;BME280;42687;42.524;12.052;2023-04-20T05:29:00;96389.75;;;7.37;93.15
56807;BME280;42687;42.524;12.052;2023-04-20T05:31:26;96397.53;;;7.39;93.35
56807;BME280;42687;42.524;12.052;2023-04-20T05:33:52;96389.69;;;7.39;92.93
56807;BME280;42687;42.524;12.052;2023-04-20T05:36:18;96386.75;;;7.45;93.42
56807;BME280;42687;42.524;12.052;2023-04-20T05:38:44;96390.59;;;7.55;94.21
56807;BME280;42687;42.524;12.052;2023-04-20T05:41:10;96392.03;;;7.61;94.16
56807;BME280;42687;42.524;12.052;2023-04-20T05:43:36;96392.91;;;7.61;93.73
56807;BME280;42687;42.524;12.052;2023-04-20T05:46:02;96401.19;;;7.70;93.28
56807;BME280;42687;42.524;12.052;2023-04-20T05:48:28;96403.56;;;7.74;93.31
56807;BME280;42687;42.524;12.052;2023-04-20T05:50:53;96411.19;;;7.79;94.69
56807;BME280;42687;42.524;12.052;2023-04-20T05:53:19;96397.31;;;7.77;94.29
56807;BME280;42687;42.524;12.052;2023-04-20T05:55:46;96410.28;;;7.96;93.79
56807;BME280;42687;42.524;12.052;2023-04-20T05:58:12;96355.31;;;7.62;93.76
56807;BME280;42687;42.524;12.052;2023-04-20T06:00:38;96402.59;;;8.09;93.60
56807;BME280;42687;42.524;12.052;2023-04-20T06:03:03;96405.31;;;8.23;93.46
56807;BME280;42687;42.524;12.052;2023-04-20T06:05:29;96395.53;;;8.27;93.10
56807;BME280;42687;42.524;12.052;2023-04-20T06:07:55;96356.75;;;8.17;92.77
56807;BME280;42687;42.524;12.052;2023-04-20T06:10:21;96400.47;;;8.65;92.85
56807;BME280;42687;42.524;12.052;2023-04-20T06:12:46;96326.72;;;8.39;92.97
56807;BME280;42687;42.524;12.052;2023-04-20T06:15:12;96389.53;;;9.03;93.12
56807;BME280;42687;42.524;12.052;2023-04-20T06:17:38;96395.50;;;9.21;93.06
56807;BME280;42687;42.524;12.052;2023-04-20T06:20:07;96396.28;;;9.38;93.38
56807;BME280;42687;42.524;12.052;2023-04-20T06:22:34;96404.97;;;9.68;93.43
56807;BME280;42687;42.524;12.052;2023-04-20T06:24:59;96408.25;;;10.01;93.61
56807;BME280;42687;42.524;12.052;2023-04-20T06:27:25;96413.00;;;10.23;94.02
56807;BME280;42687;42.524;12.052;2023-04-20T06:29:51;96409.25;;;10.56;94.23
56807;BME280;42687;42.524;12.052;2023-04-20T06:32:17;96407.75;;;10.79;95.15
56807;BME280;42687;42.524;12.052;2023-04-20T06:34:42;96392.13;;;10.91;95.14
56807;BME280;42687;42.524;12.052;2023-04-20T06:37:08;96416.19;;;11.12;94.77
56807;BME280;42687;42.524;12.052;2023-04-20T06:39:34;96407.34;;;11.26;94.34
56807;BME280;42687;42.524;12.052;2023-04-20T06:42:00;96416.03;;;11.41;94.29
56807;BME280;42687;42.524;12.052;2023-04-20T06:44:27;96413.31;;;11.55;93.80
56807;BME280;42687;42.524;12.052;2023-04-20T06:46:52;96401.09;;;11.67;93.28
56807;BME280;42687;42.524;12.052;2023-04-20T06:49:18;96419.00;;;11.88;92.38
56807;BME280;42687;42.524;12.052;2023-04-20T06:51:44;96417.53;;;11.83;92.43
56807;BME280;42687;42.524;12.052;2023-04-20T06:54:10;96408.78;;;11.70;92.38
56807;BME280;42687;42.524;12.052;2023-04-20T06:56:35;96417.72;;;11.55;92.50
56807;BME280;42687;42.524;12.052;2023-04-20T06:59:01;96392.97;;;11.31;92.81
56807;BME280;42687;42.524;12.052;2023-04-20T07:01:27;96423.50;;;11.47;92.12
56807;BME280;42687;42.524;12.052;2023-04-20T07:03:53;96423.19;;;11.39;91.94
56807;BME280;42687;42.524;12.052;2023-04-20T07:06:19;96429.91;;;11.30;91.91
56807;BME280;42687;42.524;12.052;2023-04-20T07:08:44;96412.91;;;11.08;91.37
56807;BME280;42687;42.524;12.052;2023-04-20T07:11:10;96435.44;;;11.12;91.59
56807;BME280;42687;42.524;12.052;2023-04-20T07:13:36;96432.69;;;11.01;90.96
56807;BME280;42687;42.524;12.052;2023-04-20T07:16:02;96427.59;;;10.98;90.75
56807;BME280;42687;42.524;12.052;2023-04-20T07:18:28;96422.88;;;11.03;90.56
56807;BME280;42687;42.524;12.052;2023-04-20T07:20:53;96417.34;;;11.08;90.41
56807;BME280;42687;42.524;12.052;2023-04-20T07:23:19;96421.13;;;11.16;89.33
56807;BME280;42687;42.524;12.052;2023-04-20T07:25:46;96407.84;;;11.05;89.11
56807;BME280;42687;42.524;12.052;2023-04-20T07:28:12;96415.25;;;11.26;88.94
56807;BME280;42687;42.524;12.052;2023-04-20T07:30:37;96425.75;;;11.79;87.66
56807;BME280;42687;42.524;12.052;2023-04-20T07:33:03;96426.50;;;12.70;86.73
56807;BME280;42687;42.524;12.052;2023-04-20T07:35:29;96427.88;;;13.35;86.67
56807;BME280;42687;42.524;12.052;2023-04-20T07:37:55;96414.72;;;13.82;85.67
56807;BME280;42687;42.524;12.052;2023-04-20T07:40:21;96423.38;;;14.52;84.88
56807;BME280;42687;42.524;12.052;2023-04-20T07:42:46;96416.91;;;14.45;85.02
56807;BME280;42687;42.524;12.052;2023-04-20T07:45:12;96422.78;;;14.48;85.04
56807;BME280;42687;42.524;12.052;2023-04-20T07:47:38;96418.59;;;14.23;84.94
56807;BME280;42687;42.524;12.052;2023-04-20T07:50:06;96414.34;;;13.87;86.24
56807;BME280;42687;42.524;12.052;2023-04-20T07:52:32;96421.31;;;13.76;86.33
56807;BME280;42687;42.524;12.052;2023-04-20T07:54:58;96431.28;;;13.84;86.02
56807;BME280;42687;42.524;12.052;2023-04-20T07:57:27;96420.75;;;14.41;84.65
56807;BME280;42687;42.524;12.052;2023-04-20T07:59:53;96418.19;;;14.50;84.75
56807;BME280;42687;42.524;12.052;2023-04-20T08:02:19;96371.59;;;14.04;84.94
56807;BME280;42687;42.524;12.052;2023-04-20T08:04:45;96431.94;;;14.10;85.43
56807;BME280;42687;42.524;12.052;2023-04-20T08:07:11;96432.78;;;14.22;84.59
56807;BME280;42687;42.524;12.052;2023-04-20T08:09:37;96427.53;;;15.00;84.08
56807;BME280;42687;42.524;12.052;2023-04-20T08:12:03;96410.22;;;16.13;83.12
56807;BME280;42687;42.524;12.052;2023-04-20T08:14:29;96402.28;;;17.24;80.98
56807;BME280;42687;42.524;12.052;2023-04-20T08:16:55;96420.59;;;17.17;80.37
56807;BME280;42687;42.524;12.052;2023-04-20T08:19:21;96424.75;;;16.90;80.69
56807;BME280;42687;42.524;12.052;2023-04-20T08:21:47;96424.56;;;16.31;82.08
56807;BME280;42687;42.524;12.052;2023-04-20T08:24:13;96411.91;;;16.45;80.89
56807;BME280;42687;42.524;12.052;2023-04-20T08:26:39;96430.34;;;16.97;80.50
56807;BME280;42687;42.524;12.052;2023-04-20T08:29:05;96371.22;;;17.54;79.16
56807;BME280;42687;42.524;12.052;2023-04-20T08:31:31;96410.78;;;18.61;77.81
56807;BME280;42687;42.524;12.052;2023-04-20T08:33:57;96421.13;;;19.38;76.09
56807;BME280;42687;42.524;12.052;2023-04-20T08:36:23;96432.16;;;19.07;76.97
56807;BME280;42687;42.524;12.052;2023-04-20T08:39:12;96435.06;;;18.21;77.54
56807;BME280;42687;42.524;12.052;2023-04-20T08:41:38;96428.69;;;17.94;77.80
56807;BME280;42687;42.524;12.052;2023-04-20T08:44:03;96422.97;;;17.59;78.48
56807;BME280;42687;42.524;12.052;2023-04-20T08:46:30;96415.44;;;17.55;78.21
56807;BME280;42687;42.524;12.052;2023-04-20T08:48:59;96413.69;;;17.93;77.67
56807;BME280;42687;42.524;12.052;2023-04-20T08:51:27;96410.22;;;18.67;75.35
56807;BME280;42687;42.524;12.052;2023-04-20T08:53:54;96415.16;;;19.08;72.37
56807;BME280;42687;42.524;12.052;2023-04-20T08:56:33;96417.25;;;19.32;71.56
56807;BME280;42687;42.524;12.052;2023-04-20T08:59:00;96408.34;;;19.42;70.80
56807;BME280;42687;42.524;12.052;2023-04-20T09:01:28;96404.38;;;19.46;72.16
56807;BME280;42687;42.524;12.052;2023-04-20T09:03:54;96405.50;;;20.06;72.35
56807;BME280;42687;42.524;12.052;2023-04-20T09:06:20;96405.63;;;19.60;73.61
56807;BME280;42687;42.524;12.052;2023-04-20T09:08:48;96409.06;;;18.70;75.15
56807;BME280;42687;42.524;12.052;2023-04-20T09:11:41;96413.59;;;17.75;76.34
56807;BME280;42687;42.524;12.052;2023-04-20T09:14:09;96409.66;;;16.91;77.82
56807;BME280;42687;42.524;12.052;2023-04-20T09:16:38;96425.03;;;16.15;79.23
56807;BME280;42687;42.524;12.052;2023-04-20T09:19:12;96372.81;;;15.43;79.70
56807;BME280;42687;42.524;12.052;2023-04-20T09:21:47;96416.56;;;15.37;79.86
56807;BME280;42687;42.524;12.052;2023-04-20T09:24:14;96403.50;;;15.24;78.92
56807;BME280;42687;42.524;12.052;2023-04-20T09:26:40;96412.69;;;15.62;78.39
56807;BME280;42687;42.524;12.052;2023-04-20T09:29:18;96415.22;;;15.64;78.04
56807;BME280;42687;42.524;12.052;2023-04-20T09:31:45;96408.81;;;15.45;78.32
56807;BME280;42687;42.524;12.052;2023-04-20T09:34:11;96416.22;;;15.51;78.33
56807;BME280;42687;42.524;12.052;2023-04-20T09:36:44;96414.13;;;15.66;77.64
56807;BME280;42687;42.524;12.052;2023-04-20T09:39:13;96410.50;;;15.89;76.76
56807;BME280;42687;42.524;12.052;2023-04-20T09:41:39;96412.25;;;15.78;77.53
56807;BME280;42687;42.524;12.052;2023-04-20T09:44:06;96417.78;;;15.75;77.69
56807;BME280;42687;42.524;12.052;2023-04-20T09:46:35;96402.69;;;16.59;75.49
56807;BME280;42687;42.524;12.052;2023-04-20T09:49:09;96408.41;;;17.73;73.92
56807;BME280;42687;42.524;12.052;2023-04-20T09:51:37;96379.41;;;18.83;72.19
56807;BME280;42687;42.524;12.052;2023-04-20T09:54:06;96393.22;;;19.69;70.10
56807;BME280;42687;42.524;12.052;2023-04-20T09:56:34;96389.16;;;20.09;69.84
56807;BME280;42687;42.524;12.052;2023-04-20T09:59:01;96377.88;;;20.58;68.94
56807;BME280;42687;42.524;12.052;2023-04-20T10:01:29;96373.59;;;20.65;68.28
56807;BME280;42687;42.524;12.052;2023-04-20T10:03:56;96375.34;;;20.91;67.81
56807;BME280;42687;42.524;12.052;2023-04-20T10:06:25;96379.38;;;21.03;67.62
56807;BME280;42687;42.524;12.052;2023-04-20T10:08:52;96379.94;;;21.31;67.65
56807;BME280;42687;42.524;12.052;2023-04-20T10:11:27;96363.72;;;21.58;66.80
56807;BME280;42687;42.524;12.052;2023-04-20T10:13:53;96371.72;;;21.25;68.36
56807;BME280;42687;42.524;12.052;2023-04-20T10:16:20;96388.47;;;21.52;68.24
56807;BME280;42687;42.524;12.052;2023-04-20T10:18:59;96387.72;;;21.00;69.42
56807;BME280;42687;42.524;12.052;2023-04-20T10:21:30;96375.28;;;20.05;70.35
56807;BME280;42687;42.524;12.052;2023-04-20T10:24:00;96367.34;;;19.07;71.77
56807;BME280;42687;42.524;12.052;2023-04-20T10:26:39;96376.69;;;18.09;73.22
56807;BME280;42687;42.524;12.052;2023-04-20T10:29:06;96381.13;;;17.51;74.26
56807;BME280;42687;42.524;12.052;2023-04-20T10:31:39;96368.72;;;17.03;74.94
56807;BME280;42687;42.524;12.052;2023-04-20T10:34:06;96374.16;;;16.92;74.58
56807;BME280;42687;42.524;12.052;2023-04-20T10:36:34;96350.72;;;17.93;72.59
56807;BME280;42687;42.524;12.052;2023-04-20T10:39:17;96360.38;;;18.78;71.61
56807;BME280;42687;42.524;12.052;2023-04-20T10:41:56;96373.44;;;18.71;72.21
56807;BME280;42687;42.524;12.052;2023-04-20T10:44:28;96354.47;;;18.28;71.97
56807;BME280;42687;42.524;12.052;2023-04-20T10:46:55;96361.75;;;17.98;72.36
56807;BME280;42687;42.524;12.052;2023-04-20T10:49:26;96341.81;;;17.55;72.44
56807;BME280;42687;42.524;12.052;2023-04-20T10:51:53;96349.66;;;17.37;72.48
56807;BME280;42687;42.524;12.052;2023-04-20T10:54:19;96354.31;;;17.15;72.66
56807;BME280;42687;42.524;12.052;2023-04-20T10:56:47;96295.72;;;16.78;72.89
56807;BME280;42687;42.524;12.052;2023-04-20T10:59:17;96341.16;;;16.94;73.38
56807;BME280;42687;42.524;12.052;2023-04-20T11:01:44;96334.31;;;16.92;73.58
56807;BME280;42687;42.524;12.052;2023-04-20T11:04:11;96323.81;;;17.00;72.78
56807;BME280;42687;42.524;12.052;2023-04-20T11:06:38;96327.88;;;17.24;72.32
56807;BME280;42687;42.524;12.052;2023-04-20T11:09:23;96335.56;;;17.27;72.22
56807;BME280;42687;42.524;12.052;2023-04-20T11:12:03;96314.16;;;17.18;72.21
56807;BME280;42687;42.524;12.052;2023-04-20T11:14:30;96328.72;;;17.24;72.08
56807;BME280;42687;42.524;12.052;2023-04-20T11:16:56;96312.88;;;17.42;71.35
56807;BME280;42687;42.524;12.052;2023-04-20T11:19:30;96323.13;;;17.84;71.00
56807;BME280;42687;42.524;12.052;2023-04-20T11:21:56;96322.06;;;18.15;70.75
56807;BME280;42687;42.524;12.052;2023-04-20T11:24:25;96317.38;;;18.27;70.36
56807;BME280;42687;42.524;12.052;2023-04-20T11:26:52;96308.66;;;18.53;69.78
56807;BME280;42687;42.524;12.052;2023-04-20T11:29:29;96303.50;;;19.67;67.76
56807;BME280;42687;42.524;12.052;2023-04-20T11:31:56;96307.28;;;20.69;66.07
56807;BME280;42687;42.524;12.052;2023-04-20T11:34:22;96304.19;;;21.64;64.10
56807;BME280;42687;42.524;12.052;2023-04-20T11:36:48;96292.66;;;21.63;64.25
56807;BME280;42687;42.524;12.052;2023-04-20T11:39:27;96302.81;;;22.32;62.79
56807;BME280;42687;42.524;12.052;2023-04-20T11:41:54;96280.38;;;22.73;61.88
56807;BME280;42687;42.524;12.052;2023-04-20T11:44:24;96289.34;;;22.18;62.93
56807;BME280;42687;42.524;12.052;2023-04-20T11:46:51;96295.84;;;21.59;64.26
56807;BME280;42687;42.524;12.052;2023-04-20T11:49:19;96308.66;;;21.96;64.14
56807;BME280;42687;42.524;12.052;2023-04-20T11:51:46;96314.91;;;22.28;63.98
56807;BME280;42687;42.524;12.052;2023-04-20T11:54:13;96282.63;;;22.61;64.01
56807;BME280;42687;42.524;12.052;2023-04-20T11:56:39;96296.88;;;23.31;63.05
56807;BME280;42687;42.524;12.052;2023-04-20T11:59:09;96296.66;;;23.56;62.18
56807;BME280;42687;42.524;12.052;2023-04-20T12:01:35;96298.41;;;23.49;61.76
56807;BME280;42687;42.524;12.052;2023-04-20T12:04:02;96279.81;;;22.55;63.70
56807;BME280;42687;42.524;12.052;2023-04-20T12:06:29;96296.88;;;21.25;66.84
56807;BME280;42687;42.524;12.052;2023-04-20T12:08:58;96302.19;;;19.98;69.77
56807;BME280;42687;42.524;12.052;2023-04-20T12:11:24;96294.09;;;19.11;71.84
56807;BME280;42687;42.524;12.052;2023-04-20T12:13:50;96293.72;;;18.52;73.29
56807;BME280;42687;42.524;12.052;2023-04-20T12:16:16;96281.06;;;18.08;74.16
56807;BME280;42687;42.524;12.052;2023-04-20T12:18:42;96300.31;;;17.82;74.50
56807;BME280;42687;42.524;12.052;2023-04-20T12:21:08;96271.81;;;17.27;74.77
56807;BME280;42687;42.524;12.052;2023-04-20T12:23:34;96293.34;;;17.33;74.31
56807;BME280;42687;42.524;12.052;2023-04-20T12:26:04;96293.81;;;17.57;73.09
56807;BME280;42687;42.524;12.052;2023-04-20T12:28:30;96287.75;;;18.58;71.17
56807;BME280;42687;42.524;12.052;2023-04-20T12:30:56;96286.13;;;19.37;69.62
56807;BME280;42687;42.524;12.052;2023-04-20T12:33:22;96284.13;;;19.83;68.67
56807;BME280;42687;42.524;12.052;2023-04-20T12:35:48;96274.69;;;19.45;68.68
56807;BME280;42687;42.524;12.052;2023-04-20T12:38:14;96275.38;;;19.03;69.26
56807;BME280;42687;42.524;12.052;2023-04-20T12:40:40;96276.81;;;18.61;70.46
56807;BME280;42687;42.524;12.052;2023-04-20T12:43:06;96284.53;;;18.36;70.57
56807;BME280;42687;42.524;12.052;2023-04-20T12:45:32;96276.75;;;18.25;70.89
56807;BME280;42687;42.524;12.052;2023-04-20T12:47:58;96280.66;;;18.48;70.20
56807;BME280;42687;42.524;12.052;2023-04-20T12:50:24;96271.38;;;18.53;70.12
56807;BME280;42687;42.524;12.052;2023-04-20T12:52:50;96246.53;;;18.44;69.69
56807;BME280;42687;42.524;12.052;2023-04-20T12:55:17;96255.34;;;18.44;69.24